Time;durP1;ratioP1;P1;durP2;ratioP2;P2;SDS_P1;SDS_P2;PMS_P1;PMS_P2;Temp;Humidity;BMP_temperature;BMP_pressure;BME280_temperature;BME280_humidity;BME280_pressure;Samples;Min_cycle;Max_cycle;Signal;HPM_P1;HPM_P2
2021/08/17 00:00:18;;;;;;;;;30.75;25.00;;;;;17.78;62.80;101827.97;5058242;28;45391;-63
2021/08/17 00:02:43;;;;;;;;;41.50;30.00;;;;;17.80;62.57;101832.25;5058952;28;45469;-63
2021/08/17 00:05:09;;;;;;;;;29.75;23.50;;;;;17.80;62.47;101837.50;5058468;28;46232;-62
2021/08/17 00:07:35;;;;;;;;;30.75;26.00;;;;;17.80;63.13;101837.50;5058999;28;45764;-62
2021/08/17 00:10:03;;;;;;;;;31.75;27.25;;;;;17.75;63.02;101828.97;5058973;28;45441;-62
2021/08/17 00:12:29;;;;;;;;;36.75;27.00;;;;;17.75;64.34;101828.97;5058767;28;45425;-62
2021/08/17 00:14:54;;;;;;;;;26.75;23.25;;;;;17.71;64.72;101824.75;5058078;28;46191;-62
2021/08/17 00:17:19;;;;;;;;;33.00;28.00;;;;;17.66;64.08;101821.44;5058269;28;45455;-63
2021/08/17 00:19:46;;;;;;;;;27.50;22.75;;;;;17.63;63.63;101817.16;5058621;28;45374;-63
2021/08/17 00:22:12;;;;;;;;;32.25;24.50;;;;;17.62;64.83;101827.72;5058653;28;45251;-63
2021/08/17 00:24:37;;;;;;;;;36.00;27.50;;;;;17.59;64.81;101833.06;5060569;28;45427;-63
2021/08/17 00:27:03;;;;;;;;;28.50;22.50;;;;;17.54;64.60;101822.75;5061817;28;45300;-63
2021/08/17 00:29:28;;;;;;;;;26.75;24.00;;;;;17.52;64.40;101821.09;5061660;28;45553;-63
2021/08/17 00:31:54;;;;;;;;;30.75;27.75;;;;;17.49;64.58;101816.81;5061132;28;45446;-63
2021/08/17 00:34:19;;;;;;;;;29.75;21.00;;;;;17.51;65.03;101827.28;5061334;28;45278;-63
2021/08/17 00:36:45;;;;;;;;;30.25;23.50;;;;;17.46;65.82;101823.97;5062295;28;45438;-63
2021/08/17 00:39:11;;;;;;;;;24.25;22.00;;;;;17.47;65.35;101820.44;5061559;28;45512;-63
2021/08/17 00:41:38;;;;;;;;;29.25;24.75;;;;;17.47;64.54;101818.66;5063657;28;45404;-63
2021/08/17 00:44:05;;;;;;;;;28.25;22.75;;;;;17.49;64.79;101818.59;5061169;28;47061;-63
2021/08/17 00:46:31;;;;;;;;;27.25;23.25;;;;;17.51;65.06;101822.03;5060854;28;45333;-63
2021/08/17 00:48:56;;;;;;;;;30.75;21.25;;;;;17.47;65.30;101817.81;5061192;28;45395;-63
2021/08/17 00:51:22;;;;;;;;;20.75;19.75;;;;;17.42;66.29;101809.22;5061269;28;45331;-63
2021/08/17 00:53:48;;;;;;;;;28.00;24.00;;;;;17.41;65.55;101818.88;5060959;28;46112;-63
2021/08/17 00:56:14;;;;;;;;;28.25;20.75;;;;;17.38;65.76;101808.50;5058491;28;45785;-63
2021/08/17 00:58:39;;;;;;;;;29.50;23.00;;;;;17.34;65.86;101815.63;5060969;28;45371;-63
2021/08/17 01:01:05;;;;;;;;;28.50;20.75;;;;;17.31;66.16;101812.28;5060247;28;45276;-63
2021/08/17 01:03:31;;;;;;;;;28.75;25.75;;;;;17.27;66.41;101811.53;5062932;28;46160;-65
2021/08/17 01:05:58;;;;;;;;;27.75;25.00;;;;;17.26;66.41;101808.97;5061005;28;45811;-64
2021/08/17 01:08:24;;;;;;;;;25.50;24.50;;;;;17.22;67.71;101810.88;5061062;28;45348;-63
2021/08/17 01:10:49;;;;;;;;;22.25;19.50;;;;;17.24;66.49;101808.19;5060902;28;45529;-63
2021/08/17 01:13:14;;;;;;;;;25.25;21.25;;;;;17.21;66.89;101805.66;5060578;28;46068;-63
2021/08/17 01:15:40;;;;;;;;;18.75;15.50;;;;;17.18;67.00;101804.00;5059884;28;45326;-63
2021/08/17 01:18:07;;;;;;;;;28.00;21.75;;;;;17.18;66.71;101811.03;5061012;28;45271;-63
2021/08/17 01:20:34;;;;;;;;;27.25;24.25;;;;;17.15;67.55;101811.13;5061067;28;45468;-63
2021/08/17 01:22:59;;;;;;;;;26.50;21.25;;;;;17.12;66.88;101806.00;5060900;28;46370;-63
2021/08/17 01:25:25;;;;;;;;;23.00;18.25;;;;;17.13;66.70;101811.19;5060969;28;45199;-63
2021/08/17 01:27:50;;;;;;;;;27.00;20.25;;;;;17.13;67.15;101811.19;5056852;28;45188;-63
2021/08/17 01:30:16;;;;;;;;;25.75;21.25;;;;;17.14;66.65;101818.16;5047086;28;45216;-63
2021/08/17 01:32:47;;;;;;;;;32.00;19.75;;;;;17.14;67.47;101814.69;5056223;28;46431;-63
2021/08/17 01:35:13;;;;;;;;;25.00;22.50;;;;;17.09;67.94;101816.63;5055430;28;45350;-63
2021/08/17 01:37:38;;;;;;;;;23.50;19.50;;;;;17.05;67.81;101817.66;5055553;28;45399;-63
2021/08/17 01:40:07;;;;;;;;;27.25;20.50;;;;;17.06;67.90;101814.97;5058767;28;45351;-63
2021/08/17 01:42:34;;;;;;;;;27.75;20.25;;;;;17.05;69.26;101822.94;5059427;28;47137;-65
2021/08/17 01:45:00;;;;;;;;;26.25;19.00;;;;;17.03;67.95;101818.59;5057350;28;45851;-64
2021/08/17 01:47:28;;;;;;;;;25.00;19.75;;;;;17.04;68.42;101824.69;5062809;28;45502;-64
2021/08/17 01:49:54;;;;;;;;;29.00;23.75;;;;;16.97;68.90;101826.66;5060081;28;45247;-64
2021/08/17 01:52:19;;;;;;;;;26.75;21.25;;;;;16.92;69.71;101817.25;5059729;28;46421;-63
2021/08/17 01:54:45;;;;;;;;;26.50;24.00;;;;;16.87;69.78;101811.31;5060293;28;45477;-66
2021/08/17 01:57:10;;;;;;;;;21.75;20.25;;;;;16.88;69.08;101813.03;5070718;28;45467;-66
2021/08/17 01:59:35;;;;;;;;;26.75;21.50;;;;;16.87;69.23;101813.94;5060088;28;45379;-66
2021/08/17 02:02:01;;;;;;;;;26.00;22.50;;;;;16.83;69.43;101809.72;5059906;28;45505;-66
2021/08/17 02:04:28;;;;;;;;;20.50;18.75;;;;;16.86;69.40;101810.47;5070285;27;45454;-66
2021/08/17 02:06:54;;;;;;;;;24.50;22.50;;;;;16.82;69.62;101803.63;5060090;28;45392;-65
2021/08/17 02:09:19;;;;;;;;;26.25;22.00;;;;;16.85;69.29;101810.53;5059971;28;45505;-66
2021/08/17 02:11:44;;;;;;;;;26.00;18.50;;;;;16.86;69.43;101804.34;5060222;28;45418;-65
2021/08/17 02:14:10;;;;;;;;;21.00;19.50;;;;;16.86;69.20;101799.09;5060400;28;45296;-66
2021/08/17 02:16:35;;;;;;;;;22.00;16.00;;;;;16.88;69.34;101802.53;5060159;28;45302;-66
2021/08/17 02:19:01;;;;;;;;;22.25;16.50;;;;;16.88;69.39;101800.75;5075756;28;45445;-65
2021/08/17 02:21:26;;;;;;;;;23.75;18.50;;;;;16.85;69.54;101805.28;5060295;28;45352;-66
2021/08/17 02:23:51;;;;;;;;;22.25;18.50;;;;;16.81;70.18;101801.03;5060142;28;45350;-66
2021/08/17 02:26:17;;;;;;;;;19.25;13.25;;;;;16.81;69.13;101803.66;5060353;28;45262;-64
2021/08/17 02:28:42;;;;;;;;;22.75;17.75;;;;;16.82;69.09;101802.72;5060073;28;45513;-65
2021/08/17 02:31:07;;;;;;;;;23.50;16.50;;;;;16.78;70.83;101806.38;5058545;28;48281;-63
2021/08/17 02:33:33;;;;;;;;;24.75;16.00;;;;;16.68;70.13;101801.47;5059971;28;45335;-63
2021/08/17 02:35:58;;;;;;;;;19.00;18.50;;;;;16.61;71.66;101805.19;5060111;28;45335;-63
2021/08/17 02:38:24;;;;;;;;;24.00;16.75;;;;;16.57;70.77;101792.22;5060081;28;45457;-63
2021/08/17 02:40:49;;;;;;;;;19.00;13.75;;;;;16.53;71.05;101802.00;5061385;28;46278;-64
2021/08/17 02:43:14;;;;;;;;;19.75;17.00;;;;;16.51;72.00;101795.94;5060119;28;45255;-63
2021/08/17 02:45:40;;;;;;;;;19.00;16.50;;;;;16.50;71.20;101796.00;5059863;28;45485;-62
2021/08/17 02:48:05;;;;;;;;;20.75;16.25;;;;;16.48;71.35;101808.31;5061181;28;45441;-63
2021/08/17 02:50:32;;;;;;;;;18.50;14.50;;;;;16.46;71.31;101810.13;5059547;28;46136;-63
2021/08/17 02:52:57;;;;;;;;;18.50;15.25;;;;;16.43;70.98;101806.72;5050354;28;46375;-71
2021/08/17 02:55:22;;;;;;;;;21.75;15.75;;;;;16.48;71.20;101805.69;5056393;28;45238;-66
2021/08/17 02:57:52;;;;;;;;;18.75;15.00;;;;;16.47;70.97;101811.84;5059541;28;45424;-65
2021/08/17 03:00:18;;;;;;;;;23.50;14.75;;;;;16.43;71.07;101801.47;5058040;28;47125;-65
2021/08/17 03:02:43;;;;;;;;;21.00;17.25;;;;;16.41;71.78;101802.41;5065916;27;45644;-66
2021/08/17 03:05:09;;;;;;;;;21.75;19.50;;;;;16.44;71.12;101804.94;5059614;28;45313;-66
2021/08/17 03:07:35;;;;;;;;;19.75;16.25;;;;;16.43;71.17;101804.09;5059824;28;45357;-67
2021/08/17 03:10:00;;;;;;;;;21.00;17.75;;;;;16.38;71.81;101790.25;5059614;28;45258;-64
2021/08/17 03:12:25;;;;;;;;;17.25;17.00;;;;;16.38;71.19;101802.53;5059515;28;45262;-65
2021/08/17 03:14:51;;;;;;;;;20.00;18.25;;;;;16.41;71.22;101795.38;5059568;28;45389;-64
2021/08/17 03:17:16;;;;;;;;;26.00;16.75;;;;;16.40;71.01;101800.69;5059313;28;45172;-66
2021/08/17 03:19:41;;;;;;;;;21.25;17.75;;;;;16.42;70.98;101799.75;5068384;28;45327;-66
2021/08/17 03:22:09;;;;;;;;;28.75;20.25;;;;;16.38;71.90;101792.03;5059414;28;45293;-66
2021/08/17 03:24:34;;;;;;;;;17.75;15.25;;;;;16.36;72.37;101796.47;5059388;28;45762;-67
2021/08/17 03:26:59;;;;;;;;;20.25;17.50;;;;;16.31;71.53;101794.00;5059371;28;45329;-67
2021/08/17 03:29:25;;;;;;;;;27.00;24.00;;;;;16.31;71.55;101793.16;5059108;28;46220;-67
2021/08/17 03:31:50;;;;;;;;;23.75;20.00;;;;;16.29;71.86;101797.59;5059325;28;45264;-69
2021/08/17 03:34:15;;;;;;;;;16.50;14.75;;;;;16.26;72.32;101797.72;5059246;28;45326;-66
2021/08/17 03:36:41;;;;;;;;;24.50;18.50;;;;;16.23;72.29;101789.94;5074705;28;45469;-76
2021/08/17 03:39:06;;;;;;;;;22.00;16.75;;;;;16.20;72.80;101790.03;5059098;28;45927;-67
2021/08/17 03:41:31;;;;;;;;;28.25;19.25;;;;;16.14;72.50;101791.09;5060838;28;45327;-67
2021/08/17 03:43:57;;;;;;;;;24.50;17.00;;;;;16.10;73.08;101787.72;5059197;28;45410;-67
2021/08/17 03:46:22;;;;;;;;;22.25;17.75;;;;;16.13;73.38;101792.00;5058856;28;45312;-67
2021/08/17 03:48:47;;;;;;;;;21.50;17.50;;;;;16.08;73.94;101788.69;5060659;28;46235;-76
2021/08/17 03:51:13;;;;;;;;;21.50;15.50;;;;;16.01;74.62;101790.66;5059033;28;45501;-66
2021/08/17 03:53:38;;;;;;;;;26.75;21.00;;;;;15.95;73.86;101782.13;5059083;28;45309;-65
2021/08/17 03:56:04;;;;;;;;;21.25;18.25;;;;;15.99;74.55;101795.09;5059034;28;45567;-65
2021/08/17 03:58:29;;;;;;;;;19.50;17.50;;;;;15.95;74.08;101798.72;5058967;28;45328;-64
2021/08/17 04:00:54;;;;;;;;;19.25;16.75;;;;;15.90;75.29;101792.78;5062252;28;45279;-69
2021/08/17 04:03:20;;;;;;;;;19.75;15.50;;;;;15.81;74.60;101793.06;5062345;28;45259;-66
2021/08/17 04:05:45;;;;;;;;;25.00;18.75;;;;;15.81;74.86;101795.69;5062385;28;45523;-68
2021/08/17 04:08:11;;;;;;;;;18.50;14.50;;;;;15.86;74.34;101798.19;5062102;28;46176;-69
2021/08/17 04:10:37;;;;;;;;;23.00;14.75;;;;;15.90;74.01;101791.94;5060396;28;45414;-69
2021/08/17 04:13:03;;;;;;;;;21.00;17.25;;;;;15.91;74.65;101793.63;5059884;28;45617;-68
2021/08/17 04:15:28;;;;;;;;;26.50;15.75;;;;;15.89;74.09;101793.69;5059725;28;45359;-67
2021/08/17 04:17:54;;;;;;;;;19.00;16.00;;;;;15.88;74.88;101791.97;5059141;28;45993;-67
2021/08/17 04:20:19;;;;;;;;;22.00;20.00;;;;;15.88;74.17;101785.88;5059826;28;45778;-67
2021/08/17 04:22:44;;;;;;;;;19.25;16.25;;;;;15.85;73.95;101792.09;5059963;28;45587;-67
2021/08/17 04:25:10;;;;;;;;;23.25;18.50;;;;;15.84;74.04;101792.13;5060823;28;45517;-67
2021/08/17 04:27:36;;;;;;;;;24.75;20.00;;;;;15.84;73.76;101785.13;5061714;28;46095;-66
2021/08/17 04:30:03;;;;;;;;;22.75;16.50;;;;;15.86;74.00;101785.94;5061996;28;45382;-67
2021/08/17 04:32:28;;;;;;;;;20.25;16.25;;;;;15.88;73.91;101784.13;5062211;28;45418;-68
2021/08/17 04:34:54;;;;;;;;;19.75;17.00;;;;;15.91;73.58;101788.41;5061796;28;45514;-67
2021/08/17 04:37:19;;;;;;;;;20.75;15.50;;;;;15.93;73.29;101783.97;5071238;28;46119;-68
2021/08/17 04:39:44;;;;;;;;;24.75;21.50;;;;;15.92;73.05;101777.84;5063327;28;45387;-69
2021/08/17 04:42:10;;;;;;;;;20.25;18.00;;;;;15.93;73.63;101784.81;5059131;28;45161;-68
2021/08/17 04:44:35;;;;;;;;;21.75;16.00;;;;;15.90;73.47;101781.44;5055389;28;45220;-69
2021/08/17 04:47:01;;;;;;;;;19.50;19.00;;;;;15.90;73.41;101795.41;5063314;28;45347;-69
2021/08/17 04:49:27;;;;;;;;;21.50;15.00;;;;;15.87;73.47;101781.53;5059941;28;45440;-69
2021/08/17 04:51:52;;;;;;;;;24.50;18.25;;;;;15.87;73.39;101781.53;5060363;28;45945;-68
2021/08/17 04:54:17;;;;;;;;;21.00;17.00;;;;;15.86;73.73;101785.94;5061728;28;45397;-68
2021/08/17 04:56:43;;;;;;;;;30.75;24.25;;;;;15.86;73.40;101777.22;5067962;27;47119;-68
2021/08/17 04:59:08;;;;;;;;;21.00;13.75;;;;;15.88;73.74;101781.50;5060664;28;45176;-68
2021/08/17 05:01:33;;;;;;;;;19.25;15.00;;;;;15.92;73.44;101790.97;5061459;28;45282;-68
2021/08/17 05:03:59;;;;;;;;;20.50;17.50;;;;;15.93;74.20;101789.19;5061507;28;45232;-68
2021/08/17 05:06:24;;;;;;;;;20.00;19.75;;;;;15.86;74.42;101774.59;5061206;28;45483;-69
2021/08/17 05:08:50;;;;;;;;;19.25;18.25;;;;;15.81;75.26;101782.56;5076713;28;46045;-68
2021/08/17 05:11:15;;;;;;;;;21.25;16.75;;;;;15.76;75.24;101793.22;5060103;28;45292;-68
2021/08/17 05:13:41;;;;;;;;;15.00;14.25;;;;;15.72;74.97;101796.84;5061541;28;45331;-67
2021/08/17 05:16:06;;;;;;;;;18.50;18.25;;;;;15.71;74.72;101794.28;5060737;28;46202;-68
2021/08/17 05:18:34;;;;;;;;;24.25;16.00;;;;;15.71;76.00;101800.38;5061243;28;45421;-67
2021/08/17 05:21:00;;;;;;;;;23.75;17.75;;;;;15.72;75.66;101809.09;5061034;28;45262;-68
2021/08/17 05:23:26;;;;;;;;;22.25;18.75;;;;;15.70;75.17;101803.06;5068071;28;45259;-68
2021/08/17 05:25:52;;;;;;;;;21.25;15.75;;;;;15.77;74.94;101809.81;5075662;27;47100;-68
2021/08/17 05:28:17;;;;;;;;;23.50;17.75;;;;;15.78;74.82;101804.50;5061054;28;45323;-68
2021/08/17 05:30:43;;;;;;;;;20.50;16.00;;;;;15.78;75.83;101807.13;5066927;28;45592;-68
2021/08/17 05:33:08;;;;;;;;;28.25;17.50;;;;;15.78;75.26;101807.13;5060994;28;45324;-67
2021/08/17 05:35:33;;;;;;;;;25.00;19.25;;;;;15.85;75.25;101818.28;5060733;28;46430;-68
2021/08/17 05:37:59;;;;;;;;;18.25;17.50;;;;;15.88;75.20;101810.31;5061048;28;45278;-68
2021/08/17 05:40:24;;;;;;;;;21.00;18.00;;;;;15.89;76.07;101827.78;5062293;28;45366;-68
2021/08/17 05:42:50;;;;;;;;;25.75;17.00;;;;;15.89;75.62;101819.91;5060621;28;45375;-68
2021/08/17 05:45:15;;;;;;;;;22.25;18.50;;;;;15.92;74.70;101819.81;5060224;28;46106;-68
2021/08/17 05:47:45;;;;;;;;;22.00;19.25;;;;;15.99;74.61;101823.94;5063076;28;45282;-68
2021/08/17 05:50:12;;;;;;;;;28.50;17.50;;;;;16.00;74.65;101820.41;5060588;28;45300;-69
2021/08/17 05:52:38;;;;;;;;;20.75;15.00;;;;;16.07;74.38;101821.94;5051638;28;45447;-70
2021/08/17 05:55:06;;;;;;;;;22.75;16.75;;;;;16.10;74.30;101823.59;5060441;28;45255;-70
2021/08/17 05:57:31;;;;;;;;;14.50;12.00;;;;;16.17;74.25;101829.47;5060058;28;45797;-69
2021/08/17 05:59:57;;;;;;;;;18.75;15.25;;;;;16.19;74.35;101827.66;5060074;28;45397;-69
2021/08/17 06:02:22;;;;;;;;;30.00;23.25;;;;;16.23;74.54;101829.28;5060607;28;45330;-69
2021/08/17 06:04:47;;;;;;;;;24.00;18.00;;;;;16.29;73.87;101837.81;5060188;28;46281;-69
2021/08/17 06:07:17;;;;;;;;;19.75;15.50;;;;;16.32;74.22;101828.97;5069139;28;45267;-69
2021/08/17 06:09:42;;;;;;;;;22.00;14.00;;;;;16.35;73.45;101824.47;5060226;28;45181;-70
2021/08/17 06:12:08;;;;;;;;;20.25;16.75;;;;;16.48;73.51;101839.81;5060536;28;45279;-70
2021/08/17 06:14:33;;;;;;;;;16.00;14.50;;;;;16.43;73.65;101827.72;5060310;28;46351;-68
2021/08/17 06:16:59;;;;;;;;;28.00;22.25;;;;;16.47;73.23;101838.09;5060317;28;45237;-69
2021/08/17 06:19:24;;;;;;;;;20.50;17.75;;;;;16.50;73.41;101844.09;5060231;28;45208;-69
2021/08/17 06:21:49;;;;;;;;;22.00;16.50;;;;;16.55;73.31;101841.28;5060021;28;45400;-69
2021/08/17 06:24:15;;;;;;;;;28.00;22.25;;;;;16.60;73.21;101845.47;5059623;28;46172;-69
2021/08/17 06:26:40;;;;;;;;;21.25;18.25;;;;;16.62;73.21;101843.69;5052247;28;45233;-69
2021/08/17 06:29:05;;;;;;;;;29.75;18.00;;;;;16.67;72.87;101841.78;5058717;28;45637;-69
2021/08/17 06:31:31;;;;;;;;;25.75;18.25;;;;;16.76;72.51;101840.56;5052046;28;45382;-69
2021/08/17 06:34:00;;;;;;;;;16.00;16.00;;;;;16.86;72.27;101830.63;5058521;28;45599;-68
2021/08/17 06:36:25;;;;;;;;;23.25;19.25;;;;;16.89;71.99;101836.59;5060144;28;45174;-68
2021/08/17 06:38:51;;;;;;;;;20.25;15.50;;;;;16.85;72.35;101834.16;5058232;28;45267;-68
2021/08/17 06:41:17;;;;;;;;;17.75;14.00;;;;;16.84;72.08;101841.19;5046875;28;45547;-68
2021/08/17 06:43:43;;;;;;;;;21.50;18.00;;;;;16.84;72.26;101849.06;5058779;28;45275;-68
2021/08/17 06:46:09;;;;;;;;;17.75;15.50;;;;;16.81;72.68;101854.38;5058297;28;45688;-68
2021/08/17 06:48:35;;;;;;;;;21.25;12.50;;;;;16.76;72.97;101850.22;5059869;28;45528;-67
2021/08/17 06:51:01;;;;;;;;;15.25;13.50;;;;;16.76;72.37;101847.59;5051893;28;45464;-67
2021/08/17 06:53:26;;;;;;;;;14.50;12.25;;;;;16.84;72.41;101845.56;5052427;28;46273;-67
2021/08/17 06:55:52;;;;;;;;;24.25;20.25;;;;;16.84;72.54;101835.94;5054717;28;45467;-67
2021/08/17 06:58:17;;;;;;;;;18.75;15.25;;;;;16.89;72.29;101851.50;5056098;28;45897;-68
2021/08/17 07:00:45;;;;;;;;;23.50;17.50;;;;;16.89;72.18;101848.88;5050269;28;45581;-68
2021/08/17 07:03:11;;;;;;;;;16.75;11.00;;;;;16.90;72.42;101846.19;5050375;28;45363;-68
2021/08/17 07:05:38;;;;;;;;;19.00;15.00;;;;;16.95;72.11;101840.78;5052399;28;45394;-68
2021/08/17 07:08:05;;;;;;;;;24.00;18.75;;;;;17.00;71.90;101836.19;5056281;28;45278;-67
2021/08/17 07:10:30;;;;;;;;;20.75;16.75;;;;;17.09;71.84;101837.66;5051664;28;45320;-68
2021/08/17 07:12:56;;;;;;;;;25.00;18.75;;;;;17.18;71.61;101837.28;5052512;28;45507;-67
2021/08/17 07:15:21;;;;;;;;;22.25;18.50;;;;;17.32;71.25;101840.25;5050137;28;45342;-67
2021/08/17 07:17:48;;;;;;;;;24.00;17.50;;;;;17.48;71.04;101841.41;5050673;28;45491;-67
2021/08/17 07:20:14;;;;;;;;;19.25;15.00;;;;;17.63;70.19;101840.81;5049595;28;45544;-67
2021/08/17 07:22:39;;;;;;;;;18.00;12.00;;;;;17.71;69.97;101844.94;5052265;28;45292;-67
2021/08/17 07:25:05;;;;;;;;;24.00;16.75;;;;;17.82;69.58;101845.34;5052308;28;45253;-67
2021/08/17 07:27:31;;;;;;;;;18.50;14.50;;;;;17.89;69.53;101850.31;5053164;28;45283;-67
2021/08/17 07:29:56;;;;;;;;;24.50;19.50;;;;;18.00;69.26;101856.91;5055650;28;45292;-67
2021/08/17 07:32:21;;;;;;;;;26.50;18.00;;;;;18.05;69.14;101841.81;5060480;28;45335;-68
2021/08/17 07:34:47;;;;;;;;;21.50;17.00;;;;;18.11;68.69;101852.94;5066701;28;45224;-68
2021/08/17 07:37:12;;;;;;;;;15.50;15.25;;;;;18.19;68.41;101853.44;5059173;28;45485;-67
2021/08/17 07:39:37;;;;;;;;;20.25;17.00;;;;;18.30;68.32;101847.75;5060329;28;45155;-59
2021/08/17 07:42:03;;;;;;;;;26.25;18.75;;;;;18.37;68.19;101854.47;5060508;28;45357;-61
2021/08/17 07:44:30;;;;;;;;;22.00;17.50;;;;;18.44;67.47;101855.09;5054042;28;45267;-61
2021/08/17 07:46:56;;;;;;;;;30.75;20.75;;;;;18.50;67.71;101847.78;5060873;28;45519;-61
2021/08/17 07:49:22;;;;;;;;;20.00;14.00;;;;;18.61;67.00;101847.28;5059221;28;45355;-60
2021/08/17 07:51:47;;;;;;;;;23.25;20.25;;;;;18.72;66.94;101852.13;5058703;28;46239;-60
2021/08/17 07:54:12;;;;;;;;;24.75;19.75;;;;;18.75;66.16;101849.38;5059226;28;45318;-61
2021/08/17 07:56:38;;;;;;;;;12.00;10.75;;;;;18.77;66.74;101850.16;5059261;28;45382;-61
2021/08/17 07:59:04;;;;;;;;;18.00;13.50;;;;;18.83;66.28;101852.53;5058882;28;45572;-61
2021/08/17 08:01:30;;;;;;;;;23.00;18.50;;;;;18.85;66.35;101845.41;5058455;28;46143;-60
2021/08/17 08:03:57;;;;;;;;;17.50;14.75;;;;;18.92;66.49;101844.22;5058868;28;45355;-61
2021/08/17 08:06:23;;;;;;;;;12.50;11.75;;;;;19.01;66.49;101854.31;5058910;28;45285;-61
2021/08/17 08:08:48;;;;;;;;;16.00;13.50;;;;;19.08;66.16;101854.91;5052682;28;45413;-61
2021/08/17 08:11:13;;;;;;;;;15.50;13.25;;;;;19.22;65.57;101854.28;5050719;28;49972;-60
2021/08/17 08:13:39;;;;;;;;;14.00;14.00;;;;;19.36;65.51;101858.00;5053215;28;45248;-61
2021/08/17 08:16:04;;;;;;;;;18.50;13.75;;;;;19.57;65.28;101856.16;5058435;28;45226;-61
2021/08/17 08:18:30;;;;;;;;;20.50;13.25;;;;;19.80;64.74;101852.44;5058810;28;45572;-61
2021/08/17 08:20:55;;;;;;;;;13.50;13.25;;;;;19.92;63.68;101858.91;5058460;28;46004;-61
2021/08/17 08:23:20;;;;;;;;;15.75;11.25;;;;;20.00;63.86;101860.22;5058666;28;45350;-61
2021/08/17 08:25:46;;;;;;;;;19.25;15.25;;;;;20.15;63.74;101857.78;5058534;28;45336;-60
2021/08/17 08:28:11;;;;;;;;;20.75;18.25;;;;;20.34;63.05;101864.69;5058671;28;45285;-62
2021/08/17 08:30:37;;;;;;;;;15.00;12.25;;;;;20.60;63.04;101865.19;5053782;28;46289;-62
2021/08/17 08:33:03;;;;;;;;;16.25;13.50;;;;;20.80;60.36;101857.06;5050020;28;45353;-63
2021/08/17 08:35:29;;;;;;;;;12.75;11.00;;;;;20.87;61.27;101857.63;5051442;28;45485;-63
2021/08/17 08:37:55;;;;;;;;;15.75;13.50;;;;;21.00;60.78;101863.94;5047487;28;45474;-62
2021/08/17 08:40:24;;;;;;;;;15.25;10.75;;;;;21.09;60.47;101862.63;5051794;28;45193;-63
2021/08/17 08:42:49;;;;;;;;;25.00;16.00;;;;;21.26;60.56;101865.25;5047484;28;45201;-63
2021/08/17 08:45:15;;;;;;;;;11.25;10.25;;;;;21.33;59.32;101863.97;5053429;28;45444;-63
2021/08/17 08:47:41;;;;;;;;;16.25;11.75;;;;;21.40;59.24;101870.59;5053186;28;45468;-64
2021/08/17 08:50:08;;;;;;;;;12.75;10.00;;;;;21.47;59.49;101861.41;5053915;28;45442;-63
2021/08/17 08:52:34;;;;;;;;;12.75;8.75;;;;;21.55;58.45;101861.84;5057942;28;45397;-62
2021/08/17 08:55:02;;;;;;;;;14.50;9.75;;;;;21.51;58.67;101865.59;5055055;28;45525;-63
2021/08/17 08:57:28;;;;;;;;;11.50;10.00;;;;;21.52;58.36;101866.44;5055931;28;45443;-62
2021/08/17 08:59:53;;;;;;;;;24.00;15.00;;;;;21.52;58.63;101867.31;5057159;28;45754;-62
2021/08/17 09:02:19;;;;;;;;;18.75;16.00;;;;;21.51;58.45;101872.69;5051517;28;45251;-63
2021/08/17 09:04:55;;;;;;;;;18.00;12.50;;;;;21.51;57.39;101868.25;5055144;28;45700;-62
2021/08/17 09:07:38;;;;;;;;;21.50;16.00;;;;;21.45;58.17;101865.94;5055631;28;45638;-59
2021/08/17 09:10:07;;;;;;;;;26.75;17.50;;;;;21.47;58.22;101868.50;5059093;28;46367;-62
2021/08/17 09:12:38;;;;;;;;;12.75;12.25;;;;;21.68;58.16;101866.47;5061581;28;45788;-64
2021/08/17 09:15:09;;;;;;;;;12.25;10.00;;;;;21.75;56.42;101862.50;5061443;28;45497;-59
2021/08/17 09:17:34;;;;;;;;;14.75;12.25;;;;;21.53;56.93;101863.72;5061018;28;45368;-61
2021/08/17 09:19:59;;;;;;;;;15.00;12.25;;;;;21.49;57.18;101861.34;5061077;28;45307;-59
2021/08/17 09:22:27;;;;;;;;;12.00;12.00;;;;;21.58;57.87;101859.97;5061319;28;45314;-61
2021/08/17 09:24:56;;;;;;;;;19.25;15.75;;;;;21.66;57.85;101855.97;5054532;28;45339;-66
2021/08/17 09:27:27;;;;;;;;;10.75;9.25;;;;;21.73;56.93;101859.09;5061146;28;45252;-60
2021/08/17 09:30:13;;;;;;;;;13.50;11.50;;;;;21.79;56.19;101853.47;5061071;28;45625;-60
2021/08/17 09:32:53;;;;;;;;;11.50;9.25;;;;;21.77;56.21;101852.69;5061106;28;45627;-62
2021/08/17 09:35:20;;;;;;;;;15.50;12.00;;;;;21.71;56.16;101851.25;5061344;28;45339;-61
2021/08/17 09:38:03;;;;;;;;;12.50;10.75;;;;;21.55;55.60;101845.97;5070843;28;45694;-61
2021/08/17 09:40:29;;;;;;;;;14.00;11.50;;;;;21.61;54.99;101847.41;5062688;28;46238;-61
2021/08/17 09:42:54;;;;;;;;;10.00;9.75;;;;;21.66;55.64;101836.59;5061135;28;45342;-60
2021/08/17 09:45:20;;;;;;;;;14.75;11.25;;;;;21.78;55.28;101836.72;5060721;28;45248;-62
2021/08/17 09:47:55;;;;;;;;;11.00;9.00;;;;;21.89;55.31;101844.06;5062910;28;45254;-56
2021/08/17 09:50:22;;;;;;;;;5.75;5.00;;;;;21.94;54.71;101833.22;5060536;28;46165;-55
2021/08/17 09:52:51;;;;;;;;;12.75;10.50;;;;;21.99;54.30;101839.09;5059691;28;45245;-56
2021/08/17 09:55:21;;;;;;;;;10.25;10.25;;;;;21.98;54.25;101838.22;5062038;28;46899;-56
2021/08/17 09:57:48;;;;;;;;;11.25;9.25;;;;;21.87;54.22;101838.00;5065751;28;45430;-56
2021/08/17 10:00:15;;;;;;;;;14.00;11.00;;;;;21.66;54.63;101847.19;5059887;28;45545;-56
2021/08/17 10:02:47;;;;;;;;;10.00;9.00;;;;;21.43;54.84;101828.16;5060109;28;45527;-56
2021/08/17 10:05:14;;;;;;;;;14.25;11.25;;;;;21.39;54.73;101833.66;5060862;28;45291;-56
2021/08/17 10:07:41;;;;;;;;;14.25;11.50;;;;;21.48;54.33;101831.38;5060668;28;45466;-56
2021/08/17 10:10:11;;;;;;;;;15.00;11.00;;;;;21.76;52.92;101825.38;5060358;28;47125;-55
2021/08/17 10:12:37;;;;;;;;;17.25;11.25;;;;;21.93;50.99;101827.06;5060669;28;45462;-56
2021/08/17 10:15:07;;;;;;;;;18.25;13.25;;;;;21.90;50.66;101819.31;5060382;28;45286;-61
2021/08/17 10:17:32;;;;;;;;;14.25;8.00;;;;;21.86;51.01;101813.34;5060280;28;45454;-56
2021/08/17 10:19:58;;;;;;;;;10.00;10.00;;;;;21.83;50.56;101828.56;5060051;28;46889;-55
2021/08/17 10:22:24;;;;;;;;;22.50;14.00;;;;;21.84;51.24;101819.66;5070211;28;45481;-57
2021/08/17 10:24:50;;;;;;;;;10.50;9.50;;;;;21.83;51.36;101824.09;5060417;28;45314;-57
2021/08/17 10:27:26;;;;;;;;;22.75;16.00;;;;;21.86;51.69;101823.06;5060233;28;45405;-56
2021/08/17 10:29:54;;;;;;;;;12.25;11.25;;;;;21.93;51.20;101815.63;5050926;28;46367;-57
2021/08/17 10:32:40;;;;;;;;;23.00;13.75;;;;;21.83;50.60;101810.88;5059936;28;45213;-60
2021/08/17 10:35:06;;;;;;;;;17.25;12.50;;;;;21.84;51.24;101809.09;5059723;28;45305;-63
2021/08/17 10:37:32;;;;;;;;;13.00;10.50;;;;;21.88;51.22;101810.59;5058769;28;45882;-66
2021/08/17 10:39:57;;;;;;;;;13.75;11.25;;;;;22.00;51.15;101815.16;5062796;28;46301;-54
2021/08/17 10:42:27;;;;;;;;;14.25;12.50;;;;;22.07;50.68;101810.44;5059816;28;45264;-57
2021/08/17 10:45:13;;;;;;;;;13.25;12.00;;;;;22.03;49.72;101799.13;5060016;28;45177;-56
2021/08/17 10:47:39;;;;;;;;;12.25;8.75;;;;;22.01;50.05;101801.00;5052413;28;45398;-58
2021/08/17 10:50:05;;;;;;;;;9.00;8.75;;;;;22.02;49.39;101786.81;5059655;28;46286;-63
2021/08/17 10:52:38;;;;;;;;;10.50;9.50;;;;;22.10;49.27;101792.56;5059749;28;45427;-61
2021/08/17 10:55:23;;;;;;;;;10.50;10.25;;;;;22.06;49.20;101798.13;5059925;28;45418;-63
2021/08/17 10:57:52;;;;;;;;;9.75;9.00;;;;;21.94;48.67;101789.06;5060491;28;45433;-61
2021/08/17 11:00:43;;;;;;;;;10.00;9.00;;;;;21.71;49.83;101794.84;5059715;28;46328;-60
2021/08/17 11:03:08;;;;;;;;;8.50;8.50;;;;;21.60;49.77;101784.84;5059853;28;45459;-59
2021/08/17 11:05:51;;;;;;;;;10.50;9.25;;;;;21.53;49.77;101789.66;5060242;28;45301;-58